createdAt,value
2018-06-05T00:00:17.590Z,63.6
2018-06-05T00:01:17.639Z,64.2
2018-06-05T00:02:17.939Z,65.0
2018-06-05T00:03:17.218Z,65.1
2018-06-05T00:04:17.494Z,65.2
2018-06-05T00:05:17.771Z,65.1
2018-06-05T00:06:17.043Z,65.2
2018-06-05T00:07:17.338Z,65.6
2018-06-05T00:08:17.598Z,66.4
2018-06-05T00:09:17.862Z,66.7
2018-06-05T00:10:17.148Z,66.9
2018-06-05T00:11:17.196Z,67.1
2018-06-05T00:12:17.470Z,66.4
2018-06-05T00:13:17.764Z,66.8
2018-06-05T00:14:17.043Z,67.1
2018-06-05T00:15:17.318Z,67.3
2018-06-05T00:16:17.606Z,68.0
2018-06-05T00:17:17.898Z,68.0
2018-06-05T00:18:17.197Z,68.3
2018-06-05T00:19:17.477Z,68.5
2018-06-05T00:20:17.756Z,68.7
2018-06-05T00:21:17.784Z,68.4
2018-06-05T00:22:17.049Z,68.1
2018-06-05T00:23:17.303Z,66.2
2018-06-05T00:24:17.584Z,67.6
2018-06-05T00:25:17.863Z,68.6
2018-06-05T00:26:17.143Z,68.6
2018-06-05T00:27:17.418Z,68.6
2018-06-05T00:28:17.700Z,68.2
2018-06-05T00:29:17.987Z,68.2
2018-06-05T00:30:17.274Z,68.4
2018-06-05T00:31:17.338Z,67.8
2018-06-05T00:32:17.617Z,68.0
2018-06-05T00:33:17.932Z,68.4
2018-06-05T00:34:17.208Z,68.7
2018-06-05T00:35:17.486Z,68.9
2018-06-05T00:36:17.763Z,68.9
2018-06-05T00:37:17.046Z,68.8
2018-06-05T00:38:17.330Z,68.8
2018-06-05T00:39:17.631Z,69.0
2018-06-05T00:40:17.902Z,69.0
2018-06-05T00:41:17.941Z,68.8
2018-06-05T00:42:17.206Z,68.9
2018-06-05T00:43:17.488Z,68.8
2018-06-05T00:44:17.775Z,69.0
2018-06-05T00:45:17.066Z,69.4
2018-06-05T00:46:17.344Z,69.7
2018-06-05T00:47:17.619Z,70.0
2018-06-05T00:48:17.917Z,69.9
2018-06-05T00:49:17.199Z,69.9
2018-06-05T00:50:17.480Z,69.7
2018-06-05T00:51:17.523Z,69.7
2018-06-05T00:52:17.797Z,69.8
2018-06-05T00:53:17.080Z,70.0
2018-06-05T00:54:17.359Z,70.4
2018-06-05T00:55:17.639Z,70.3
2018-06-05T00:56:17.921Z,70.0
2018-06-05T00:57:17.199Z,70.3
2018-06-05T00:58:17.485Z,70.4
2018-06-05T00:59:17.778Z,70.6
2018-06-05T01:00:17.083Z,70.3
2018-06-05T01:01:17.100Z,70.2
2018-06-05T01:02:17.392Z,70.2
2018-06-05T01:03:17.664Z,70.4
2018-06-05T01:04:17.948Z,70.4
2018-06-05T01:05:17.231Z,70.6
2018-06-05T01:06:17.503Z,70.8
2018-06-05T01:07:17.775Z,77.3
2018-06-05T01:08:17.261Z,77.2
2018-06-05T01:09:17.545Z,77.3
2018-06-05T01:10:17.822Z,77.5
2018-06-05T01:11:17.870Z,77.6
2018-06-05T01:12:17.150Z,77.8
2018-06-05T01:13:17.423Z,71.0
2018-06-05T01:14:17.706Z,70.9
2018-06-05T01:15:18.007Z,70.8
2018-06-05T01:16:17.306Z,71.5
2018-06-05T01:17:17.606Z,71.5
2018-06-05T01:18:17.872Z,71.0
2018-06-05T01:19:17.157Z,71.0
2018-06-05T01:20:17.488Z,71.0
2018-06-05T01:21:17.475Z,71.2
2018-06-05T01:22:17.746Z,71.5
2018-06-05T01:23:17.031Z,71.7
2018-06-05T01:24:17.313Z,71.6
2018-06-05T01:25:17.588Z,71.6
2018-06-05T01:26:17.870Z,71.8
2018-06-05T01:27:17.146Z,72.1
2018-06-05T01:28:17.424Z,71.9
2018-06-05T01:29:17.707Z,72.1
2018-06-05T01:30:17.989Z,71.9
2018-06-05T01:31:17.017Z,72.1
2018-06-05T01:32:17.314Z,72.1
2018-06-05T01:33:17.605Z,71.8
2018-06-05T01:34:18.193Z,71.9
2018-06-05T01:35:17.477Z,72.0
2018-06-05T01:36:17.750Z,71.6
2018-06-05T01:37:17.023Z,71.7
2018-06-05T01:38:17.299Z,71.8
2018-06-05T01:39:17.583Z,78.2
2018-06-05T01:40:17.865Z,78.1
2018-06-05T01:41:17.910Z,78.0
2018-06-05T01:42:17.177Z,72.0
2018-06-05T01:43:17.451Z,77.8
2018-06-05T01:44:17.732Z,77.9
2018-06-05T01:45:17.006Z,77.9
2018-06-05T01:46:17.284Z,71.5
2018-06-05T01:47:17.556Z,70.9
2018-06-05T01:48:17.835Z,70.8
2018-06-05T01:49:17.109Z,70.9
2018-06-05T01:50:17.399Z,71.4
2018-06-05T01:51:17.450Z,71.4
2018-06-05T01:52:17.726Z,71.4
2018-06-05T01:53:17.000Z,71.0
2018-06-05T01:54:17.294Z,70.3
2018-06-05T01:55:17.576Z,70.1
2018-06-05T01:56:17.861Z,69.3
2018-06-05T01:57:17.132Z,69.3
2018-06-05T01:58:17.441Z,69.8
2018-06-05T01:59:17.744Z,69.5
2018-06-05T02:00:17.016Z,69.7
2018-06-05T02:01:17.090Z,69.4
2018-06-05T02:02:17.409Z,69.7
2018-06-05T02:03:17.701Z,69.9
2018-06-05T02:04:18.271Z,76.7
2018-06-05T02:05:17.555Z,76.5
2018-06-05T02:06:17.838Z,76.3
2018-06-05T02:07:17.124Z,70.0
2018-06-05T02:08:17.401Z,70.1
2018-06-05T02:09:17.695Z,70.0
2018-06-05T02:10:17.985Z,70.6
2018-06-05T02:11:16.997Z,70.5
2018-06-05T02:12:17.286Z,70.7
2018-06-05T02:13:17.575Z,77.0
2018-06-05T02:14:17.873Z,76.9
2018-06-05T02:15:17.155Z,77.0
2018-06-05T02:16:17.450Z,70.8
2018-06-05T02:17:17.728Z,70.9
2018-06-05T02:18:17.007Z,77.8
2018-06-05T02:19:17.282Z,77.8
2018-06-05T02:20:17.588Z,77.9
2018-06-05T02:21:17.614Z,71.5
2018-06-05T02:22:17.891Z,71.7
2018-06-05T02:23:17.166Z,71.8
2018-06-05T02:24:17.445Z,71.9
2018-06-05T02:25:17.731Z,72.0
2018-06-05T02:26:17.000Z,71.8
2018-06-05T02:27:17.288Z,72.0
2018-06-05T02:28:17.566Z,71.7
2018-06-05T02:29:17.851Z,71.5
2018-06-05T02:30:17.149Z,70.7
2018-06-05T02:31:17.199Z,70.8
2018-06-05T02:32:17.482Z,71.0
2018-06-05T02:33:17.760Z,71.2
2018-06-05T02:34:17.149Z,71.2
2018-06-05T02:35:17.410Z,71.4
2018-06-05T02:36:17.693Z,71.2
2018-06-05T02:37:17.997Z,71.1
2018-06-05T02:38:17.290Z,70.9
2018-06-05T02:39:17.570Z,70.9
2018-06-05T02:40:17.860Z,71.1
2018-06-05T02:41:18.219Z,71.0
2018-06-05T02:42:17.509Z,77.5
2018-06-05T02:43:17.774Z,77.2
2018-06-05T02:44:17.039Z,77.1
2018-06-05T02:45:17.322Z,77.1
2018-06-05T02:46:17.607Z,70.9
2018-06-05T02:47:18.196Z,71.1
2018-06-05T02:48:17.473Z,71.1
2018-06-05T02:49:17.754Z,71.3
2018-06-05T02:50:17.042Z,71.6
2018-06-05T02:51:17.077Z,71.3
2018-06-05T02:52:17.351Z,70.6
2018-06-05T02:53:17.623Z,70.0
2018-06-05T02:54:17.919Z,70.1
2018-06-05T02:55:17.198Z,70.3
2018-06-05T02:56:17.487Z,70.5
2018-06-05T02:57:17.772Z,70.9
2018-06-05T02:58:17.074Z,71.2
2018-06-05T02:59:17.345Z,71.3
2018-06-05T03:00:17.623Z,71.4
2018-06-05T03:01:17.668Z,72.1
2018-06-05T03:02:17.949Z,70.9
2018-06-05T03:03:17.236Z,71.1
2018-06-05T03:04:17.511Z,71.8
2018-06-05T03:05:17.808Z,77.3
2018-06-05T03:06:17.098Z,77.2
2018-06-05T03:07:17.403Z,76.8
2018-06-05T03:08:17.691Z,69.9
2018-06-05T03:09:17.970Z,70.3
2018-06-05T03:10:17.245Z,77.3
2018-06-05T03:11:17.312Z,77.3
2018-06-05T03:12:17.598Z,77.6
2018-06-05T03:13:17.885Z,72.2
2018-06-05T03:14:17.176Z,78.2
2018-06-05T03:15:17.470Z,78.3
2018-06-05T03:16:17.750Z,78.2
2018-06-05T03:17:17.028Z,72.3
2018-06-05T03:18:17.314Z,78.7
2018-06-05T03:19:17.603Z,78.8
2018-06-05T03:20:17.881Z,78.8
2018-06-05T03:21:17.958Z,79.2
2018-06-05T03:22:17.254Z,79.2
2018-06-05T03:23:17.956Z,79.2
2018-06-05T03:24:17.225Z,73.6
2018-06-05T03:25:17.503Z,79.2
2018-06-05T03:26:17.782Z,79.1
2018-06-05T03:27:17.070Z,79.3
2018-06-05T03:28:17.351Z,73.6
2018-06-05T03:29:17.637Z,73.6
2018-06-05T03:30:17.918Z,79.4
2018-06-05T03:31:17.962Z,79.3
2018-06-05T03:32:17.249Z,78.8
2018-06-05T03:33:17.525Z,72.7
2018-06-05T03:34:17.806Z,72.4
2018-06-05T03:35:17.084Z,73.2
2018-06-05T03:36:17.356Z,73.5
2018-06-05T03:37:17.625Z,73.6
2018-06-05T03:38:17.908Z,79.9
2018-06-05T03:39:17.494Z,79.7
2018-06-05T03:40:17.785Z,79.7
2018-06-05T03:41:17.823Z,80.1
2018-06-05T03:42:17.103Z,79.2
2018-06-05T03:43:17.382Z,79.4
2018-06-05T03:44:17.661Z,79.9
2018-06-05T03:45:17.947Z,73.7
2018-06-05T03:46:17.213Z,80.1
2018-06-05T03:47:17.468Z,80.3
2018-06-05T03:48:17.726Z,80.2
2018-06-05T03:49:17.010Z,80.3
2018-06-05T03:50:17.291Z,74.0
2018-06-05T03:51:17.348Z,74.3
2018-06-05T03:52:17.637Z,74.9
2018-06-05T03:53:17.902Z,74.9
2018-06-05T03:54:17.190Z,74.9
2018-06-05T03:55:17.480Z,75.0
2018-06-05T03:56:17.764Z,75.0
2018-06-05T03:57:17.022Z,74.8
2018-06-05T03:58:17.280Z,74.6
2018-06-05T03:59:17.541Z,74.2
2018-06-05T04:00:17.812Z,80.8
2018-06-05T04:01:17.859Z,80.7
2018-06-05T04:02:17.119Z,80.7
2018-06-05T04:03:17.383Z,74.3
2018-06-05T04:04:17.696Z,74.0
2018-06-05T04:05:17.981Z,73.9
2018-06-05T04:06:17.267Z,73.9
2018-06-05T04:07:17.554Z,73.4
2018-06-05T04:08:17.834Z,73.5
2018-06-05T04:09:17.105Z,73.7
2018-06-05T04:10:17.636Z,73.6
2018-06-05T04:11:17.466Z,73.5
2018-06-05T04:12:17.773Z,74.0
2018-06-05T04:13:17.071Z,73.6
2018-06-05T04:14:17.364Z,73.5
2018-06-05T04:15:17.639Z,73.4
2018-06-05T04:16:17.915Z,73.5
2018-06-05T04:17:17.188Z,73.3
2018-06-05T04:18:17.502Z,72.5
2018-06-05T04:19:17.845Z,78.8
2018-06-05T04:20:17.129Z,78.8
2018-06-05T04:21:17.194Z,78.8
2018-06-05T04:22:17.474Z,72.5
2018-06-05T04:23:17.766Z,72.6
2018-06-05T04:24:17.026Z,72.7
2018-06-05T04:25:17.313Z,72.7
2018-06-05T04:26:17.612Z,72.2
2018-06-05T04:27:17.901Z,72.6
2018-06-05T04:28:17.178Z,71.5
2018-06-05T04:29:17.464Z,71.1
2018-06-05T04:30:17.757Z,77.0
2018-06-05T04:31:17.815Z,77.1
2018-06-05T04:32:17.101Z,76.8
2018-06-05T04:33:17.380Z,76.8
2018-06-05T04:34:17.655Z,76.7
2018-06-05T04:35:17.939Z,70.3
2018-06-05T04:36:17.196Z,70.1
2018-06-05T04:37:17.462Z,70.1
2018-06-05T04:38:17.731Z,70.5
2018-06-05T04:39:17.016Z,76.9
2018-06-05T04:40:17.307Z,77.0
2018-06-05T04:41:17.354Z,76.7
2018-06-05T04:42:17.632Z,76.5
2018-06-05T04:43:17.930Z,76.6
2018-06-05T04:44:17.227Z,70.2
2018-06-05T04:45:17.520Z,70.5
2018-06-05T04:46:17.797Z,70.4
2018-06-05T04:47:17.093Z,70.5
2018-06-05T04:48:17.369Z,70.1
2018-06-05T04:49:17.648Z,70.1
2018-06-05T04:50:17.940Z,70.0
2018-06-05T04:51:17.969Z,69.9
2018-06-05T04:52:17.250Z,69.2
2018-06-05T04:53:17.536Z,69.1
2018-06-05T04:54:17.819Z,75.3
2018-06-05T04:55:17.491Z,75.3
2018-06-05T04:56:17.768Z,75.0
2018-06-05T04:57:17.047Z,68.4
2018-06-05T04:58:17.328Z,68.5
2018-06-05T04:59:17.607Z,68.7
2018-06-05T05:00:18.180Z,68.5
2018-06-05T05:01:17.943Z,68.4
2018-06-05T05:02:17.214Z,67.9
2018-06-05T05:03:17.496Z,67.5
2018-06-05T05:04:17.773Z,66.6
2018-06-05T05:05:17.070Z,66.6
2018-06-05T05:06:17.349Z,65.6
2018-06-05T05:07:17.620Z,65.0
2018-06-05T05:08:17.899Z,65.0
2018-06-05T05:09:17.184Z,64.8
2018-06-05T05:10:17.476Z,64.3
2018-06-05T05:11:17.520Z,63.7
2018-06-05T05:12:17.805Z,63.2
2018-06-05T05:13:17.086Z,63.0
2018-06-05T05:14:17.360Z,62.7
2018-06-05T05:15:17.630Z,62.6
2018-06-05T05:16:17.974Z,62.1
2018-06-05T05:17:17.247Z,62.3
2018-06-05T05:18:17.527Z,61.7
2018-06-05T05:19:17.787Z,60.9
2018-06-05T05:20:17.067Z,60.9
2018-06-05T05:21:17.116Z,60.6
2018-06-05T05:22:17.402Z,60.4
2018-06-05T05:23:17.761Z,59.9
2018-06-05T05:24:17.058Z,59.5
2018-06-05T05:25:17.335Z,59.8
2018-06-05T05:26:17.610Z,59.3
2018-06-05T05:27:17.885Z,59.1
2018-06-05T05:28:17.159Z,58.3
2018-06-05T05:29:17.438Z,68.3
2018-06-05T05:30:17.749Z,67.6
2018-06-05T05:31:17.750Z,67.3
2018-06-05T05:32:17.024Z,66.8
2018-06-05T05:33:17.294Z,67.3
2018-06-05T05:34:17.580Z,67.0
2018-06-05T05:35:17.889Z,66.9
2018-06-05T05:36:17.182Z,67.3
2018-06-05T05:37:17.455Z,67.2
2018-06-05T05:38:17.728Z,67.0
2018-06-05T05:39:17.110Z,67.1
2018-06-05T05:40:17.457Z,65.9
2018-06-05T05:41:17.487Z,66.5
2018-06-05T05:42:17.759Z,66.1
2018-06-05T05:43:17.041Z,56.6
2018-06-05T05:44:17.334Z,55.4
2018-06-05T05:45:17.615Z,65.5
2018-06-05T05:46:17.888Z,65.5
2018-06-05T05:47:17.170Z,65.0
2018-06-05T05:48:17.483Z,56.0
2018-06-05T05:49:17.757Z,55.7
2018-06-05T05:50:17.050Z,55.4
2018-06-05T05:51:17.073Z,55.4
2018-06-05T05:52:17.364Z,64.8
2018-06-05T05:53:17.635Z,64.8
2018-06-05T05:54:17.909Z,64.7
2018-06-05T05:55:17.356Z,64.8
2018-06-05T05:56:17.650Z,64.5
2018-06-05T05:57:17.940Z,64.7
2018-06-05T05:58:17.217Z,64.5
2018-06-05T05:59:17.507Z,63.8
2018-06-05T06:00:17.783Z,63.0
2018-06-05T06:01:17.828Z,63.0
2018-06-05T06:02:17.095Z,63.6
2018-06-05T06:03:17.352Z,63.5
2018-06-05T06:04:17.627Z,64.0
2018-06-05T06:05:18.156Z,55.9
2018-06-05T06:06:17.437Z,55.5
2018-06-05T06:07:17.723Z,63.2
2018-06-05T06:08:18.001Z,62.2
2018-06-05T06:09:17.291Z,62.4
2018-06-05T06:10:17.590Z,62.4
2018-06-05T06:11:17.605Z,62.5
2018-06-05T06:12:17.890Z,63.4
2018-06-05T06:13:17.169Z,62.1
2018-06-05T06:14:17.446Z,52.6
2018-06-05T06:15:17.724Z,62.0
2018-06-05T06:16:16.999Z,62.4
2018-06-05T06:17:17.283Z,62.5
2018-06-05T06:18:17.589Z,53.3
2018-06-05T06:19:17.866Z,52.1
2018-06-05T06:20:17.158Z,51.7
2018-06-05T06:21:17.195Z,51.5
2018-06-05T06:22:17.476Z,51.5
2018-06-05T06:23:17.762Z,50.9
2018-06-05T06:24:17.043Z,51.6
2018-06-05T06:25:17.319Z,53.0
2018-06-05T06:26:17.608Z,52.4
2018-06-05T06:27:17.889Z,62.4
2018-06-05T06:28:17.171Z,61.9
2018-06-05T06:29:17.451Z,62.0
2018-06-05T06:30:17.727Z,60.4
2018-06-05T06:31:17.794Z,60.5
2018-06-05T06:32:17.078Z,60.3
2018-06-05T06:33:17.365Z,61.1
2018-06-05T06:34:17.659Z,60.8
2018-06-05T06:35:17.960Z,61.2
2018-06-05T06:36:17.228Z,61.9
2018-06-05T06:37:17.482Z,61.2
2018-06-05T06:38:17.750Z,61.4
2018-06-05T06:39:17.029Z,61.8
2018-06-05T06:40:17.323Z,61.5
2018-06-05T06:41:17.363Z,59.7
2018-06-05T06:42:17.640Z,59.2
2018-06-05T06:43:17.915Z,59.4
2018-06-05T06:44:17.207Z,59.9
2018-06-05T06:45:17.493Z,59.8
2018-06-05T06:46:17.769Z,58.8
2018-06-05T06:47:17.040Z,58.2
2018-06-05T06:48:17.313Z,58.6
2018-06-05T06:49:17.571Z,58.1
2018-06-05T06:50:17.883Z,59.2
2018-06-05T06:51:17.875Z,46.0
2018-06-05T06:52:17.152Z,43.6
2018-06-05T06:53:17.435Z,43.9
2018-06-05T06:54:17.710Z,42.8
2018-06-05T06:55:17.970Z,42.4
2018-06-05T06:56:17.270Z,55.7
2018-06-05T06:57:17.558Z,55.5
2018-06-05T06:58:17.834Z,56.3
2018-06-05T06:59:17.112Z,55.8
2018-06-05T07:00:17.411Z,55.9
2018-06-05T07:01:17.436Z,55.3
2018-06-05T07:02:17.722Z,54.6
2018-06-05T07:03:18.004Z,54.5
2018-06-05T07:04:17.290Z,54.5
2018-06-05T07:05:17.569Z,54.2
2018-06-05T07:06:17.853Z,54.2
2018-06-05T07:07:17.107Z,54.0
2018-06-05T07:08:17.396Z,53.9
2018-06-05T07:09:17.704Z,53.7
2018-06-05T07:10:17.984Z,53.9
2018-06-05T07:11:17.026Z,52.5
2018-06-05T07:12:17.379Z,52.9
2018-06-05T07:13:17.663Z,54.4
2018-06-05T07:14:17.947Z,53.5
2018-06-05T07:15:17.221Z,53.2
2018-06-05T07:16:17.515Z,53.5
2018-06-05T07:17:17.799Z,54.2
2018-06-05T07:18:17.155Z,53.4
2018-06-05T07:19:17.446Z,54.4
2018-06-05T07:20:17.729Z,53.9
2018-06-05T07:21:17.778Z,37.5
2018-06-05T07:22:17.053Z,36.8
2018-06-05T07:23:17.338Z,35.6
2018-06-05T07:24:17.624Z,36.3
2018-06-05T07:25:17.887Z,36.7
2018-06-05T07:26:17.159Z,35.3
2018-06-05T07:27:17.427Z,50.9
2018-06-05T07:28:17.723Z,50.9
2018-06-05T07:29:17.025Z,51.4
2018-06-05T07:30:17.554Z,50.2
2018-06-05T07:31:17.360Z,51.0
2018-06-05T07:32:17.648Z,52.3
2018-06-05T07:33:17.924Z,52.5
2018-06-05T07:34:17.218Z,52.2
2018-06-05T07:35:17.501Z,50.1
2018-06-05T07:36:17.775Z,49.9
2018-06-05T07:37:17.051Z,50.1
2018-06-05T07:38:17.310Z,49.9
2018-06-05T07:39:17.586Z,51.8
2018-06-05T07:40:17.909Z,51.2
2018-06-05T07:41:17.928Z,49.7
2018-06-05T07:42:17.226Z,49.5
2018-06-05T07:43:17.512Z,50.4
2018-06-05T07:44:17.844Z,49.6
2018-06-05T07:45:17.132Z,49.8
2018-06-05T07:46:17.433Z,49.7
2018-06-05T07:47:17.729Z,49.3
2018-06-05T07:48:16.996Z,49.6
2018-06-05T07:49:17.259Z,49.0
2018-06-05T07:50:17.537Z,50.4
2018-06-05T07:51:17.582Z,50.6
2018-06-05T07:52:17.867Z,49.8
2018-06-05T07:53:17.141Z,49.4
2018-06-05T07:54:17.420Z,49.5
2018-06-05T07:55:17.744Z,48.6
2018-06-05T07:56:17.014Z,49.5
2018-06-05T07:57:17.275Z,49.0
2018-06-05T07:58:17.527Z,49.1
2018-06-05T07:59:17.808Z,49.3
2018-06-05T08:00:17.098Z,48.5
2018-06-05T08:01:17.157Z,48.2
2018-06-05T08:02:17.441Z,47.8
2018-06-05T08:03:17.722Z,48.0
2018-06-05T08:04:18.069Z,47.6
2018-06-05T08:05:17.354Z,49.8
2018-06-05T08:06:17.626Z,50.9
2018-06-05T08:07:17.910Z,49.8
2018-06-05T08:08:17.194Z,48.6
2018-06-05T08:09:17.476Z,48.2
2018-06-05T08:10:17.768Z,49.2
2018-06-05T08:11:17.822Z,47.8
2018-06-05T08:12:17.105Z,47.3
2018-06-05T08:13:17.392Z,46.6
2018-06-05T08:14:17.691Z,47.2
2018-06-05T08:15:17.975Z,46.4
2018-06-05T08:16:17.254Z,46.4
2018-06-05T08:17:17.564Z,46.0
2018-06-05T08:18:17.842Z,45.2
2018-06-05T08:19:17.125Z,45.3
2018-06-05T08:20:17.412Z,46.7
2018-06-05T08:21:17.467Z,45.2
2018-06-05T08:22:17.758Z,44.8
2018-06-05T08:23:17.039Z,45.7
2018-06-05T08:24:17.320Z,44.8
2018-06-05T08:25:17.607Z,44.9
2018-06-05T08:26:17.901Z,45.2
2018-06-05T08:27:17.167Z,45.5
2018-06-05T08:28:17.447Z,44.9
2018-06-05T08:29:17.722Z,44.5
2018-06-05T08:30:18.022Z,47.2
2018-06-05T08:31:17.053Z,45.9
2018-06-05T08:32:17.334Z,46.0
2018-06-05T08:33:17.615Z,44.0
2018-06-05T08:34:17.887Z,44.1
2018-06-05T08:35:17.179Z,43.9
2018-06-05T08:36:17.472Z,43.1
2018-06-05T08:37:17.767Z,42.1
2018-06-05T08:38:17.044Z,42.0
2018-06-05T08:39:17.318Z,29.6
2018-06-05T08:40:17.605Z,29.8
2018-06-05T08:41:17.633Z,31.4
2018-06-05T08:42:17.916Z,42.8
2018-06-05T08:43:17.194Z,42.4
2018-06-05T08:44:17.472Z,41.7
2018-06-05T08:45:17.855Z,41.5
2018-06-05T08:46:17.199Z,42.4
2018-06-05T08:47:17.485Z,42.9
2018-06-05T08:48:17.773Z,43.3
2018-06-05T08:49:17.049Z,43.7
2018-06-05T08:50:17.332Z,42.7
2018-06-05T08:51:17.359Z,42.1
2018-06-05T08:52:17.639Z,42.0
2018-06-05T08:53:17.919Z,41.8
2018-06-05T08:54:17.427Z,40.7
2018-06-05T08:55:17.770Z,40.1
2018-06-05T08:56:17.045Z,40.0
2018-06-05T08:57:17.339Z,40.0
2018-06-05T08:58:17.625Z,40.2
2018-06-05T08:59:17.920Z,40.3
2018-06-05T09:00:17.215Z,40.6
2018-06-05T09:01:17.242Z,41.6
2018-06-05T09:02:17.521Z,41.0
2018-06-05T09:03:17.785Z,40.1
2018-06-05T09:04:17.053Z,40.5
2018-06-05T09:05:17.405Z,41.4
2018-06-05T09:06:17.700Z,41.4
2018-06-05T09:07:17.989Z,40.9
2018-06-05T09:08:17.279Z,40.0
2018-06-05T09:09:17.568Z,39.5
2018-06-05T09:10:17.867Z,38.9
2018-06-05T09:11:17.890Z,38.8
2018-06-05T09:12:17.161Z,39.0
2018-06-05T09:13:17.447Z,38.0
2018-06-05T09:14:17.723Z,37.8
2018-06-05T09:15:17.999Z,37.1
2018-06-05T09:16:17.272Z,37.6
2018-06-05T09:17:17.559Z,36.5
2018-06-05T09:18:17.833Z,35.9
2018-06-05T09:19:17.112Z,34.0
2018-06-05T09:20:17.427Z,34.3
2018-06-05T09:21:17.438Z,37.6
2018-06-05T09:22:17.723Z,38.2
2018-06-05T09:23:18.002Z,35.5
2018-06-05T09:24:17.283Z,35.0
2018-06-05T09:25:17.576Z,34.6
2018-06-05T09:26:17.856Z,36.0
2018-06-05T09:27:17.124Z,34.5
2018-06-05T09:28:17.400Z,34.2
2018-06-05T09:29:17.678Z,34.2
2018-06-05T09:30:17.968Z,35.0
2018-06-05T09:31:17.003Z,34.2
2018-06-05T09:32:17.280Z,34.9
2018-06-05T09:33:17.583Z,37.5
2018-06-05T09:34:17.944Z,36.2
2018-06-05T09:35:17.244Z,36.9
2018-06-05T09:36:17.518Z,35.5
2018-06-05T09:37:17.791Z,35.9
2018-06-05T09:38:17.066Z,34.9
2018-06-05T09:39:17.339Z,34.3
2018-06-05T09:40:17.622Z,36.1
2018-06-05T09:41:17.684Z,35.8
2018-06-05T09:42:17.975Z,35.0
2018-06-05T09:43:17.257Z,34.5
2018-06-05T09:44:17.539Z,33.6
2018-06-05T09:45:17.816Z,33.0
2018-06-05T09:46:17.096Z,32.2
2018-06-05T09:47:17.357Z,32.1
2018-06-05T09:48:17.617Z,32.5
2018-06-05T09:49:17.871Z,32.5
2018-06-05T09:50:17.146Z,33.0
2018-06-05T09:51:17.171Z,33.5
2018-06-05T09:52:17.423Z,33.3
2018-06-05T09:53:17.699Z,34.8
2018-06-05T09:54:17.979Z,33.9
2018-06-05T09:55:17.256Z,33.9
2018-06-05T09:56:17.533Z,35.2
2018-06-05T09:57:17.812Z,35.1
2018-06-05T09:58:17.549Z,35.1
2018-06-05T09:59:17.153Z,33.8
2018-06-05T10:00:17.513Z,34.4
2018-06-05T10:01:17.561Z,37.2
2018-06-05T10:02:17.844Z,34.5
2018-06-05T10:03:17.114Z,33.8
2018-06-05T10:04:17.399Z,32.9
2018-06-05T10:05:17.749Z,33.2
2018-06-05T10:06:17.044Z,32.4
2018-06-05T10:07:17.309Z,31.9
2018-06-05T10:08:17.607Z,33.1
2018-06-05T10:09:17.897Z,33.0
2018-06-05T10:10:17.173Z,34.2
2018-06-05T10:11:17.238Z,32.2
2018-06-05T10:12:17.508Z,32.1
2018-06-05T10:13:17.804Z,33.2
2018-06-05T10:14:17.098Z,34.5
2018-06-05T10:15:17.381Z,33.2
2018-06-05T10:16:17.677Z,23.9
2018-06-05T10:17:17.974Z,24.3
2018-06-05T10:18:17.258Z,34.9
2018-06-05T10:19:17.544Z,35.5
2018-06-05T10:20:17.892Z,32.5
2018-06-05T10:21:17.883Z,33.5
2018-06-05T10:22:17.391Z,34.5
2018-06-05T10:23:17.678Z,35.7
2018-06-05T10:24:17.964Z,36.5
2018-06-05T10:25:17.259Z,37.4
2018-06-05T10:26:17.532Z,36.9
2018-06-05T10:27:17.809Z,36.1
2018-06-05T10:28:17.092Z,35.8
2018-06-05T10:29:17.379Z,32.1
2018-06-05T10:30:17.662Z,31.9
2018-06-05T10:31:17.712Z,32.1
2018-06-05T10:32:17.998Z,20.8
2018-06-05T10:33:17.288Z,31.5
2018-06-05T10:34:17.568Z,32.0
2018-06-05T10:35:17.854Z,34.4
2018-06-05T10:36:17.123Z,33.8
2018-06-05T10:37:17.380Z,33.8
2018-06-05T10:38:17.653Z,34.2
2018-06-05T10:39:17.940Z,34.0
2018-06-05T10:40:17.370Z,33.6
2018-06-05T10:41:17.271Z,34.1
2018-06-05T10:42:17.547Z,33.2
2018-06-05T10:43:17.825Z,33.6
2018-06-05T10:44:17.115Z,31.8
2018-06-05T10:45:17.398Z,32.0
2018-06-05T10:46:17.673Z,31.8
2018-06-05T10:47:17.958Z,31.8
2018-06-05T10:48:17.236Z,33.5
2018-06-05T10:49:17.523Z,27.1
2018-06-05T10:50:17.801Z,24.8
2018-06-05T10:51:17.847Z,33.4
2018-06-05T10:52:17.157Z,32.6
2018-06-05T10:53:17.453Z,34.5
2018-06-05T10:54:17.754Z,34.5
2018-06-05T10:55:17.039Z,35.0
2018-06-05T10:56:17.318Z,24.2
2018-06-05T10:57:17.613Z,25.1
2018-06-05T10:58:17.892Z,34.2
2018-06-05T10:59:17.146Z,35.9
2018-06-05T11:00:17.462Z,34.9
2018-06-05T11:01:17.494Z,35.0
2018-06-05T11:02:17.753Z,34.9
2018-06-05T11:03:17.034Z,26.8
2018-06-05T11:04:17.320Z,25.1
2018-06-05T11:05:17.588Z,25.9
2018-06-05T11:06:17.862Z,33.8
2018-06-05T11:07:17.116Z,33.4
2018-06-05T11:08:17.375Z,33.4
2018-06-05T11:09:17.659Z,33.8
2018-06-05T11:10:18.229Z,34.0
2018-06-05T11:11:17.989Z,34.5
2018-06-05T11:12:17.282Z,34.1
2018-06-05T11:13:17.532Z,35.2
2018-06-05T11:14:17.789Z,34.7
2018-06-05T11:15:17.061Z,34.5
2018-06-05T11:16:17.346Z,25.2
2018-06-05T11:17:17.615Z,27.5
2018-06-05T11:18:17.972Z,27.8
2018-06-05T11:19:17.235Z,27.3
2018-06-05T11:20:17.531Z,27.2
2018-06-05T11:21:17.596Z,27.9
2018-06-05T11:22:17.892Z,29.1
2018-06-05T11:23:17.152Z,29.2
2018-06-05T11:24:17.433Z,29.1
2018-06-05T11:25:17.722Z,29.0
2018-06-05T11:26:18.005Z,27.2
2018-06-05T11:27:17.284Z,27.4
2018-06-05T11:28:17.556Z,29.3
2018-06-05T11:29:17.835Z,29.6
2018-06-05T11:30:17.117Z,28.7
2018-06-05T11:31:17.166Z,36.3
2018-06-05T11:32:17.446Z,35.3
2018-06-05T11:33:17.717Z,35.2
2018-06-05T11:34:17.998Z,26.4
2018-06-05T11:35:17.257Z,25.6
2018-06-05T11:36:17.531Z,26.8
2018-06-05T11:37:17.812Z,26.0
2018-06-05T11:38:17.092Z,25.5
2018-06-05T11:39:17.378Z,26.1
2018-06-05T11:40:17.674Z,25.3
2018-06-05T11:41:17.705Z,25.1
2018-06-05T11:42:17.991Z,25.8
2018-06-05T11:43:17.276Z,25.9
2018-06-05T11:44:17.562Z,35.6
2018-06-05T11:45:17.872Z,36.6
2018-06-05T11:46:17.152Z,36.2
2018-06-05T11:47:17.428Z,36.2
2018-06-05T11:48:17.709Z,37.0
2018-06-05T11:49:17.993Z,36.4
2018-06-05T11:50:17.261Z,37.8
2018-06-05T11:51:17.323Z,37.5
2018-06-05T11:52:17.609Z,37.3
2018-06-05T11:53:17.892Z,37.4
2018-06-05T11:54:17.285Z,37.3
2018-06-05T11:55:17.622Z,37.0
2018-06-05T11:56:17.933Z,37.5
2018-06-05T11:57:17.218Z,37.7
2018-06-05T11:58:17.495Z,37.5
2018-06-05T11:59:17.771Z,36.1
2018-06-05T12:00:17.062Z,36.2
2018-06-05T12:01:17.118Z,35.8
2018-06-05T12:02:17.396Z,36.5
2018-06-05T12:03:17.679Z,35.9
2018-06-05T12:04:17.954Z,34.5
2018-06-05T12:05:17.251Z,34.9
2018-06-05T12:06:17.548Z,35.0
2018-06-05T12:07:17.827Z,34.8
2018-06-05T12:08:17.076Z,31.0
2018-06-05T12:09:17.357Z,32.1
2018-06-05T12:10:17.645Z,33.6
2018-06-05T12:11:17.677Z,33.5
2018-06-05T12:12:17.958Z,33.3
2018-06-05T12:13:17.227Z,33.7
2018-06-05T12:14:17.505Z,33.4
2018-06-05T12:15:17.797Z,34.2
2018-06-05T12:16:17.079Z,34.6
2018-06-05T12:17:17.365Z,38.1
2018-06-05T12:18:17.658Z,38.2
2018-06-05T12:19:17.968Z,38.0
2018-06-05T12:20:17.262Z,38.2
2018-06-05T12:21:17.311Z,37.1
2018-06-05T12:22:17.592Z,37.1
2018-06-05T12:23:17.879Z,37.0
2018-06-05T12:24:17.167Z,37.4
2018-06-05T12:25:17.441Z,37.5
2018-06-05T12:26:17.706Z,37.5
2018-06-05T12:27:17.990Z,37.5
2018-06-05T12:28:17.309Z,37.5
2018-06-05T12:29:17.604Z,38.0
2018-06-05T12:30:17.908Z,37.5
2018-06-05T12:31:17.963Z,35.2
2018-06-05T12:32:17.259Z,35.7
2018-06-05T12:33:17.558Z,38.1
2018-06-05T12:34:17.857Z,37.8
2018-06-05T12:35:17.164Z,36.6
2018-06-05T12:36:17.464Z,37.0
2018-06-05T12:37:17.773Z,36.6
2018-06-05T12:38:17.044Z,34.8
2018-06-05T12:39:17.310Z,38.3
2018-06-05T12:40:17.604Z,38.0
2018-06-05T12:41:17.636Z,38.5
2018-06-05T12:42:17.933Z,35.4
2018-06-05T12:43:17.229Z,33.7
2018-06-05T12:44:17.505Z,35.3
2018-06-05T12:45:17.779Z,35.3
2018-06-05T12:46:17.041Z,35.3
2018-06-05T12:47:17.298Z,33.1
2018-06-05T12:48:17.612Z,32.7
2018-06-05T12:49:17.892Z,33.4
2018-06-05T12:50:17.178Z,34.8
2018-06-05T12:51:17.210Z,37.7
2018-06-05T12:52:17.487Z,37.1
2018-06-05T12:53:17.763Z,37.0
2018-06-05T12:54:17.163Z,37.2
2018-06-05T12:55:17.441Z,36.2
2018-06-05T12:56:17.730Z,35.7
2018-06-05T12:57:18.007Z,37.0
2018-06-05T12:58:17.281Z,36.0
2018-06-05T12:59:17.562Z,39.4
2018-06-05T13:00:17.830Z,38.6
2018-06-05T13:01:17.900Z,36.9
2018-06-05T13:02:17.168Z,36.9
2018-06-05T13:03:17.430Z,36.9
2018-06-05T13:04:17.711Z,37.3
2018-06-05T13:05:18.049Z,37.9
2018-06-05T13:06:17.337Z,36.2
2018-06-05T13:07:17.626Z,36.2
2018-06-05T13:08:17.922Z,35.8
2018-06-05T13:09:17.205Z,35.5
2018-06-05T13:10:17.494Z,35.6
2018-06-05T13:11:17.523Z,37.5
2018-06-05T13:12:17.805Z,37.6
2018-06-05T13:13:17.077Z,38.2
2018-06-05T13:14:17.343Z,37.6
2018-06-05T13:15:17.619Z,37.5
2018-06-05T13:16:17.911Z,37.5
2018-06-05T13:17:17.199Z,33.8
2018-06-05T13:18:17.490Z,35.1